createdAt,value
2023-05-01T00:04:05.546Z,10.10
2023-05-01T00:09:07.455Z,10.00
2023-05-01T00:14:09.220Z,10.00
2023-05-01T00:19:12.596Z,10.60
2023-05-01T00:24:16.562Z,11.20
2023-05-01T00:34:23.603Z,10.00
2023-05-01T00:39:25.483Z,10.00
2023-05-01T00:44:27.190Z,8.20
2023-05-01T00:49:29.387Z,9.90
2023-05-01T00:54:31.279Z,9.90
2023-05-01T00:59:33.065Z,9.90
2023-05-01T01:04:35.101Z,9.80
2023-05-01T01:10:19.005Z,9.80
2023-05-01T01:15:24.203Z,9.70
2023-05-01T01:20:32.198Z,9.80
2023-05-01T01:26:00.261Z,9.60
2023-05-01T01:31:26.696Z,9.60
2023-05-01T01:36:56.469Z,9.60
2023-05-01T01:42:00.619Z,9.60
2023-05-01T01:47:06.922Z,9.50
2023-05-01T01:52:14.140Z,9.60
2023-05-01T01:57:18.584Z,9.50
2023-05-01T02:02:22.304Z,9.50
2023-05-01T02:07:26.816Z,9.50
2023-05-01T02:12:29.600Z,10.30
2023-05-01T02:17:32.272Z,9.50
2023-05-01T02:22:34.281Z,9.50
2023-05-01T02:27:39.563Z,9.40
2023-05-01T02:32:41.417Z,9.40
2023-05-01T02:37:44.285Z,9.40
2023-05-01T02:42:48.035Z,12.20
2023-05-01T02:47:52.943Z,9.50
2023-05-01T02:52:55.345Z,9.50
2023-05-01T02:58:00.438Z,9.40
2023-05-01T03:03:02.216Z,11.90
2023-05-01T03:08:04.429Z,9.50
2023-05-01T03:18:09.815Z,9.50
2023-05-01T03:23:11.730Z,11.10
2023-05-01T03:28:14.270Z,9.40
2023-05-01T03:33:16.304Z,12.30
2023-05-01T03:38:18.480Z,9.40
2023-05-01T03:43:20.157Z,9.30
2023-05-01T03:48:22.342Z,9.40
2023-05-01T03:53:24.549Z,10.40
2023-05-01T03:58:26.274Z,9.50
2023-05-01T04:03:28.941Z,9.50
2023-05-01T04:13:33.270Z,9.60
2023-05-01T04:18:34.965Z,9.60
2023-05-01T04:23:36.695Z,9.70
2023-05-01T04:28:38.646Z,7.30
2023-05-01T04:33:40.660Z,9.80
2023-05-01T04:38:42.478Z,9.80
2023-05-01T04:48:46.483Z,9.80
2023-05-01T04:53:48.426Z,9.80
2023-05-01T04:58:50.249Z,9.90
2023-05-01T05:03:52.311Z,9.90
2023-05-01T05:08:54.438Z,9.80
2023-05-01T05:13:56.438Z,10.00
2023-05-01T05:18:58.448Z,10.00
2023-05-01T05:24:00.698Z,10.70
2023-05-01T05:29:02.402Z,10.00
2023-05-01T05:34:04.290Z,11.00
2023-05-01T05:39:06.075Z,10.30
2023-05-01T05:44:08.769Z,10.50
2023-05-01T05:49:10.577Z,10.50
2023-05-01T05:54:12.275Z,10.60
2023-05-01T05:59:16.616Z,10.60
2023-05-01T06:04:19.146Z,12.00
2023-05-01T06:09:21.528Z,10.80
2023-05-01T06:14:23.720Z,10.80
2023-05-01T06:19:25.762Z,11.00
2023-05-01T06:24:28.518Z,11.00
2023-05-01T06:29:31.240Z,11.10
2023-05-01T06:34:32.896Z,11.30
2023-05-01T06:39:34.845Z,11.50
2023-05-01T06:44:36.901Z,11.40
2023-05-01T06:49:38.606Z,11.40
2023-05-01T06:54:40.280Z,11.70
2023-05-01T06:59:42.373Z,11.70
2023-05-01T07:04:44.713Z,11.90
2023-05-01T07:09:46.440Z,11.90
2023-05-01T07:14:48.290Z,12.00
2023-05-01T07:19:50.607Z,12.10
2023-05-01T07:24:52.696Z,13.40
2023-05-01T07:29:57.968Z,12.10
2023-05-01T07:35:00.095Z,12.30
2023-05-01T07:40:02.397Z,12.30
2023-05-01T07:45:04.481Z,12.40
2023-05-01T07:50:11.289Z,12.40
2023-05-01T07:55:13.388Z,11.70
2023-05-01T08:00:15.635Z,12.50
2023-05-01T08:05:17.507Z,12.70
2023-05-01T08:10:19.382Z,12.80
2023-05-01T08:15:21.683Z,14.10
2023-05-01T08:20:23.551Z,12.80
2023-05-01T08:25:25.419Z,12.70
2023-05-01T08:30:27.264Z,13.00
2023-05-01T08:35:29.397Z,13.00
2023-05-01T08:40:35.773Z,13.30
2023-05-01T08:45:38.373Z,13.30
2023-05-01T08:50:44.317Z,13.40
2023-05-01T08:55:47.900Z,13.40
2023-05-01T09:00:49.862Z,13.40
2023-05-01T09:05:52.969Z,13.30
2023-05-01T09:10:56.772Z,13.20
2023-05-01T09:16:00.854Z,13.20
2023-05-01T09:21:03.668Z,13.30
2023-05-01T09:26:06.029Z,13.00
2023-05-01T09:31:28.989Z,13.30
2023-05-01T09:36:32.845Z,13.30
2023-05-01T09:41:34.635Z,13.30
2023-05-01T09:46:42.759Z,13.50
2023-05-01T09:51:44.751Z,13.80
2023-05-01T09:56:50.062Z,13.70
2023-05-01T10:27:10.742Z,15.80
2023-05-01T10:37:56.215Z,16.30
2023-05-01T10:43:30.650Z,17.00
2023-05-01T10:48:42.594Z,17.30
2023-05-01T10:53:52.216Z,17.70
2023-05-01T10:59:04.929Z,17.90
2023-05-01T11:04:23.160Z,17.90
2023-05-01T11:09:40.380Z,18.20
2023-05-01T11:15:09.140Z,18.40
2023-05-01T11:20:13.892Z,18.10
2023-05-01T11:25:34.250Z,17.90
2023-05-01T11:30:40.741Z,17.80
2023-05-01T11:40:59.431Z,17.90
2023-05-01T11:51:13.337Z,17.90
2023-05-01T11:56:26.393Z,18.10
2023-05-01T12:01:36.072Z,17.70
2023-05-01T12:06:47.890Z,17.80
2023-05-01T12:11:52.690Z,17.80
2023-05-01T12:16:55.804Z,17.50
2023-05-01T12:22:16.386Z,17.40
2023-05-01T12:27:19.333Z,17.50
2023-05-01T12:32:32.433Z,17.80
2023-05-01T12:37:34.876Z,18.10
2023-05-01T12:42:36.837Z,18.10
2023-05-01T12:47:39.270Z,18.20
2023-05-01T12:52:41.551Z,17.90
2023-05-01T12:57:54.206Z,17.70
2023-05-01T13:03:04.287Z,18.20
2023-05-01T13:08:06.196Z,18.20
2023-05-01T13:13:07.881Z,18.30
2023-05-01T13:18:09.680Z,18.40
2023-05-01T13:23:15.100Z,18.30
2023-05-01T13:28:20.838Z,18.30
2023-05-01T13:43:27.856Z,19.30
2023-05-01T13:48:31.076Z,19.40
2023-05-01T13:53:32.945Z,19.50
2023-05-01T13:58:35.325Z,19.20
2023-05-01T14:03:41.621Z,19.60
2023-05-01T14:08:44.525Z,19.20
2023-05-01T14:13:47.786Z,19.50
2023-05-01T14:18:49.568Z,18.90
2023-05-01T14:23:55.584Z,18.80
2023-05-01T14:28:57.430Z,19.40
2023-05-01T14:34:01.847Z,17.90
2023-05-01T14:39:04.496Z,17.80
2023-05-01T14:49:11.372Z,17.80
2023-05-01T14:54:14.313Z,19.50
2023-05-01T14:59:16.381Z,19.50
2023-05-01T15:04:18.522Z,20.50
2023-05-01T15:09:20.436Z,20.10
2023-05-01T15:14:22.194Z,19.10
2023-05-01T15:19:24.100Z,18.30
2023-05-01T15:24:26.218Z,18.50
2023-05-01T15:29:28.103Z,18.10
2023-05-01T15:34:30.380Z,18.50
2023-05-01T15:39:33.191Z,18.60
2023-05-01T15:44:35.086Z,18.00
2023-05-01T15:49:36.918Z,18.10
2023-05-01T15:54:39.141Z,18.70
2023-05-01T15:59:41.340Z,18.40
2023-05-01T16:04:47.779Z,18.00
2023-05-01T16:09:50.392Z,17.90
2023-05-01T16:14:52.568Z,17.60
2023-05-01T16:19:55.346Z,17.50
2023-05-01T16:24:59.602Z,17.50
2023-05-01T16:30:06.060Z,17.50
2023-05-01T16:35:15.038Z,17.60
2023-05-01T16:40:18.359Z,17.40
2023-05-01T16:45:20.850Z,17.40
2023-05-01T16:50:22.875Z,17.30
2023-05-01T16:55:26.052Z,17.20
2023-05-01T17:00:29.336Z,17.10
2023-05-01T17:05:31.531Z,16.90
2023-05-01T17:10:33.260Z,16.90
2023-05-01T17:15:35.032Z,16.80
2023-05-01T17:20:36.973Z,16.70
2023-05-01T17:25:38.870Z,16.50
2023-05-01T17:30:41.062Z,16.30
2023-05-01T17:35:42.852Z,16.20
2023-05-01T17:40:44.962Z,16.10
2023-05-01T17:45:48.012Z,15.70
2023-05-01T17:50:49.870Z,15.70
2023-05-01T17:55:52.346Z,15.50
2023-05-01T18:00:55.481Z,15.40
2023-05-01T18:16:04.766Z,15.10
2023-05-01T18:21:06.558Z,14.90
2023-05-01T18:26:08.273Z,14.80
2023-05-01T18:36:12.423Z,14.70
2023-05-01T18:46:16.406Z,14.50
2023-05-01T18:51:18.252Z,14.40
2023-05-01T18:56:20.126Z,14.30
2023-05-01T19:01:23.604Z,14.20
2023-05-01T19:06:26.377Z,14.10
2023-05-01T19:16:33.634Z,14.10
2023-05-01T19:21:35.852Z,14.00
2023-05-01T19:26:39.132Z,13.80
2023-05-01T19:31:40.938Z,13.70
2023-05-01T19:36:42.972Z,13.60
2023-05-01T19:41:44.791Z,13.60
2023-05-01T19:46:46.566Z,13.40
2023-05-01T19:56:51.777Z,13.20
2023-05-01T20:01:53.862Z,13.20
2023-05-01T20:17:00.460Z,13.10
2023-05-01T20:27:04.873Z,12.80
2023-05-01T20:32:06.763Z,12.80
2023-05-01T20:37:08.736Z,12.60
2023-05-01T20:47:13.924Z,12.30
2023-05-01T20:57:18.031Z,12.20
2023-05-01T21:02:19.784Z,12.10
2023-05-01T21:07:21.524Z,12.10
2023-05-01T21:12:23.305Z,12.50
2023-05-01T21:22:28.391Z,11.90
2023-05-01T21:32:40.350Z,11.80
2023-05-01T21:37:43.829Z,11.70
2023-05-01T21:42:46.186Z,11.60
2023-05-01T21:47:50.841Z,11.40
2023-05-01T21:52:52.845Z,12.10
2023-05-01T21:57:54.899Z,11.50
2023-05-01T22:02:57.141Z,11.40
2023-05-01T22:08:00.658Z,11.30
2023-05-01T22:13:06.365Z,11.20
2023-05-01T22:18:08.412Z,11.20
2023-05-01T22:23:10.225Z,11.20
2023-05-01T22:28:11.987Z,11.10
2023-05-01T22:33:13.783Z,11.80
2023-05-01T22:38:15.644Z,11.00
2023-05-01T22:43:17.438Z,11.00
2023-05-01T22:48:19.386Z,10.90
2023-05-01T22:53:21.259Z,10.80
2023-05-01T22:58:23.078Z,10.80
2023-05-01T23:03:24.869Z,10.80
2023-05-01T23:08:27.026Z,10.70
2023-05-01T23:13:31.449Z,11.60
2023-05-01T23:18:33.373Z,10.60
2023-05-01T23:23:36.014Z,10.70
2023-05-01T23:28:44.233Z,10.40
2023-05-01T23:33:45.986Z,12.70
2023-05-01T23:38:48.311Z,10.30
2023-05-01T23:43:50.139Z,10.30
2023-05-01T23:48:52.415Z,10.40
2023-05-01T23:53:54.131Z,10.80
2023-05-01T23:58:56.022Z,10.30
